createdAt,value
2022-08-09T00:00:04.484Z,79.13
2022-08-09T00:02:34.988Z,79.54
2022-08-09T00:06:18.465Z,79.75
2022-08-09T00:07:54.356Z,79.73
2022-08-09T00:10:24.664Z,79.42
2022-08-09T00:12:54.427Z,79.67
2022-08-09T00:15:26.364Z,79.19
2022-08-09T00:18:07.531Z,79.67
2022-08-09T00:20:42.309Z,79.64
2022-08-09T00:23:56.056Z,79.83
2022-08-09T00:26:07.449Z,79.43
2022-08-09T00:28:37.110Z,79.62
2022-08-09T00:31:30.446Z,79.58
2022-08-09T00:33:55.848Z,79.74
2022-08-09T00:36:29.471Z,80.21
2022-08-09T00:38:58.970Z,79.83
2022-08-09T00:44:10.202Z,79.77
2022-08-09T00:44:26.785Z,80.33
2022-08-09T00:47:04.787Z,80.21
2022-08-09T00:49:34.775Z,80.09
2022-08-09T00:52:17.774Z,80.38
2022-08-09T00:54:48.420Z,80.07
2022-08-09T00:57:33.854Z,80.08
2022-08-09T01:00:21.438Z,80.11
2022-08-09T01:02:57.092Z,80.68
2022-08-09T01:05:50.836Z,80.53
2022-08-09T01:08:30.296Z,80.36
2022-08-09T01:11:19.383Z,80.66
2022-08-09T01:13:59.355Z,80.82
2022-08-09T01:16:37.080Z,80.71
2022-08-09T01:19:39.820Z,80.87
2022-08-09T01:22:29.143Z,80.57
2022-08-09T01:25:14.431Z,80.87
2022-08-09T01:27:52.861Z,81.22
2022-08-09T01:30:28.576Z,81.58
2022-08-09T01:33:07.426Z,81.60
2022-08-09T01:35:43.698Z,81.75
2022-08-09T01:38:18.711Z,81.17
2022-08-09T01:40:52.848Z,81.29
2022-08-09T01:43:41.949Z,81.84
2022-08-09T01:46:23.962Z,81.38
2022-08-09T01:49:00.029Z,81.59
2022-08-09T01:51:32.335Z,81.59
2022-08-09T01:54:04.606Z,81.26
2022-08-09T01:56:34.938Z,81.86
2022-08-09T01:59:16.379Z,81.69
2022-08-09T02:01:59.465Z,81.62
2022-08-09T02:04:31.159Z,82.08
2022-08-09T02:07:17.945Z,81.46
2022-08-09T02:10:10.909Z,81.71
2022-08-09T02:12:40.058Z,81.35
2022-08-09T02:15:16.883Z,81.56
2022-08-09T02:18:09.556Z,81.63
2022-08-09T02:20:40.876Z,81.67
2022-08-09T02:23:16.908Z,81.62
2022-08-09T02:25:52.876Z,81.11
2022-08-09T02:28:32.639Z,81.41
2022-08-09T02:31:06.648Z,81.24
2022-08-09T02:34:06.446Z,81.48
2022-08-09T02:36:33.684Z,80.98
2022-08-09T02:39:14.305Z,81.22
2022-08-09T02:41:54.147Z,81.48
2022-08-09T02:44:30.531Z,80.72
2022-08-09T02:47:05.047Z,81.44
2022-08-09T02:49:38.874Z,80.69
2022-08-09T02:52:14.418Z,80.97
2022-08-09T02:54:54.637Z,81.13
2022-08-09T02:57:27.243Z,80.80
2022-08-09T03:00:21.195Z,81.46
2022-08-09T03:02:58.382Z,81.09
2022-08-09T03:05:29.922Z,81.35
2022-08-09T03:08:04.840Z,81.28
2022-08-09T03:10:36.441Z,81.26
2022-08-09T03:13:08.589Z,81.65
2022-08-09T03:16:06.070Z,81.24
2022-08-09T03:18:30.793Z,81.34
2022-08-09T03:21:01.583Z,81.60
2022-08-09T03:23:30.200Z,81.85
2022-08-09T03:26:04.803Z,82.05
2022-08-09T03:28:35.887Z,81.93
2022-08-09T03:31:10.445Z,81.94
2022-08-09T03:33:54.302Z,82.25
2022-08-09T03:36:27.452Z,82.02
2022-08-09T03:38:57.913Z,81.91
2022-08-09T03:41:29.808Z,81.97
2022-08-09T03:44:13.015Z,81.98
2022-08-09T03:46:43.875Z,82.19
2022-08-09T03:49:17.301Z,82.33
2022-08-09T03:51:58.507Z,82.00
2022-08-09T03:54:32.485Z,82.37
2022-08-09T03:57:20.363Z,82.31
2022-08-09T03:59:53.669Z,82.61
2022-08-09T04:02:27.974Z,82.16
2022-08-09T04:05:06.075Z,82.44
2022-08-09T04:07:52.440Z,81.72
2022-08-09T04:10:29.555Z,82.22
2022-08-09T04:13:04.337Z,82.18
2022-08-09T04:15:42.691Z,81.66
2022-08-09T04:18:22.093Z,82.18
2022-08-09T04:20:51.927Z,82.37
2022-08-09T04:23:24.475Z,82.38
2022-08-09T04:25:54.978Z,81.91
2022-08-09T04:28:32.943Z,81.85
2022-08-09T04:31:09.469Z,81.83
2022-08-09T04:33:53.049Z,81.83
2022-08-09T04:36:32.491Z,82.55
2022-08-09T04:39:03.690Z,82.02
2022-08-09T04:41:33.926Z,81.91
2022-08-09T04:44:14.648Z,81.74
2022-08-09T04:46:59.323Z,82.28
2022-08-09T04:49:53.264Z,82.15
2022-08-09T04:52:26.486Z,81.57
2022-08-09T04:54:55.746Z,81.38
2022-08-09T04:57:25.249Z,81.51
2022-08-09T04:59:55.790Z,81.33
2022-08-09T05:02:27.432Z,81.30
2022-08-09T05:04:56.529Z,81.87
2022-08-09T05:07:29.299Z,81.65
2022-08-09T05:10:01.814Z,81.61
2022-08-09T05:12:32.874Z,81.99
2022-08-09T05:15:11.405Z,81.71
2022-08-09T05:18:50.761Z,81.80
2022-08-09T05:20:40.070Z,81.79
2022-08-09T05:23:55.428Z,82.13
2022-08-09T05:25:59.377Z,82.66
2022-08-09T05:28:27.529Z,82.90
2022-08-09T05:30:55.734Z,83.15
2022-08-09T05:33:26.378Z,82.83
2022-08-09T05:36:01.958Z,83.34
2022-08-09T05:38:31.675Z,83.46
2022-08-09T05:40:59.859Z,83.76
2022-08-09T05:43:29.095Z,84.09
2022-08-09T05:46:00.542Z,84.29
2022-08-09T05:48:33.279Z,84.19
2022-08-09T05:51:42.387Z,84.71
2022-08-09T05:53:57.307Z,84.65
2022-08-09T05:56:27.099Z,84.98
2022-08-09T05:58:58.541Z,84.92
2022-08-09T06:01:34.022Z,85.24
2022-08-09T06:04:12.305Z,85.13
2022-08-09T06:06:46.725Z,85.28
2022-08-09T06:09:40.930Z,85.24
2022-08-09T06:12:09.141Z,84.94
2022-08-09T06:14:37.422Z,85.10
2022-08-09T06:17:09.303Z,84.88
2022-08-09T06:19:41.530Z,84.79
2022-08-09T06:22:15.300Z,84.70
2022-08-09T06:24:45.201Z,84.33
2022-08-09T06:27:15.692Z,84.18
2022-08-09T06:29:47.918Z,84.10
2022-08-09T06:33:00.077Z,83.51
2022-08-09T06:35:15.814Z,83.08
2022-08-09T06:37:52.994Z,82.82
2022-08-09T06:40:33.914Z,82.21
2022-08-09T06:43:02.282Z,81.84
2022-08-09T06:46:07.843Z,81.36
2022-08-09T06:48:26.214Z,81.01
2022-08-09T06:51:00.145Z,80.67
2022-08-09T06:53:33.327Z,80.25
2022-08-09T06:56:09.718Z,79.78
2022-08-09T07:00:46.372Z,79.12
2022-08-09T07:01:53.580Z,78.13
2022-08-09T07:04:19.977Z,77.66
2022-08-09T07:06:53.445Z,77.19
2022-08-09T07:09:54.140Z,76.11
2022-08-09T07:12:20.149Z,75.74
2022-08-09T07:14:51.081Z,75.46
2022-08-09T07:17:20.314Z,75.01
2022-08-09T07:19:50.903Z,74.55
2022-08-09T07:22:27.399Z,74.11
2022-08-09T07:25:05.141Z,73.65
2022-08-09T07:27:43.142Z,73.27
2022-08-09T07:30:25.129Z,72.78
2022-08-09T07:32:54.984Z,72.24
2022-08-09T07:35:23.483Z,71.40
2022-08-09T07:37:54.142Z,70.56
2022-08-09T07:40:33.895Z,69.56
2022-08-09T07:43:17.238Z,68.31
2022-08-09T07:45:45.455Z,67.36
2022-08-09T07:48:25.742Z,66.77
2022-08-09T07:51:10.288Z,66.69
2022-08-09T07:54:07.801Z,66.68
2022-08-09T07:56:44.969Z,66.02
2022-08-09T07:59:34.870Z,64.91
2022-08-09T08:02:09.466Z,64.40
2022-08-09T08:04:38.865Z,63.51
2022-08-09T08:07:27.095Z,62.99
2022-08-09T08:10:05.681Z,62.58
2022-08-09T08:12:43.803Z,62.04
2022-08-09T08:15:23.935Z,61.66
2022-08-09T08:17:57.914Z,61.04
2022-08-09T08:20:32.675Z,59.61
2022-08-09T08:23:16.258Z,58.55
2022-08-09T08:25:48.345Z,57.57
2022-08-09T08:28:32.513Z,57.33
2022-08-09T08:31:08.926Z,57.30
2022-08-09T08:33:54.086Z,56.46
2022-08-09T08:36:29.090Z,56.34
2022-08-09T08:38:58.052Z,55.32
2022-08-09T08:41:42.015Z,55.48
2022-08-09T08:44:15.600Z,54.68
2022-08-09T08:47:02.598Z,53.96
2022-08-09T08:49:47.005Z,53.23
2022-08-09T08:55:08.070Z,52.11
2022-08-09T08:57:37.469Z,51.66
2022-08-09T09:00:16.864Z,50.83
2022-08-09T09:02:53.701Z,51.18
2022-08-09T09:05:54.281Z,51.10
2022-08-09T09:08:31.146Z,51.43
2022-08-09T09:11:04.254Z,50.93
2022-08-09T09:13:55.531Z,51.01
2022-08-09T09:16:30.721Z,50.30
2022-08-09T09:19:37.297Z,49.40
2022-08-09T09:22:11.598Z,49.74
2022-08-09T09:24:43.321Z,49.85
2022-08-09T09:28:04.331Z,50.15
2022-08-09T09:30:28.825Z,50.34
2022-08-09T09:33:15.625Z,50.99
2022-08-09T09:36:02.549Z,50.76
2022-08-09T09:38:43.806Z,50.29
2022-08-09T09:41:13.502Z,49.47
2022-08-09T09:44:11.040Z,49.84
2022-08-09T09:46:51.724Z,49.43
2022-08-09T09:49:32.289Z,49.53
2022-08-09T09:52:16.513Z,49.53
2022-08-09T09:55:16.209Z,49.38
2022-08-09T09:58:03.254Z,49.33
2022-08-09T10:00:33.619Z,48.04
2022-08-09T10:03:11.449Z,47.99
2022-08-09T10:06:03.262Z,47.26
2022-08-09T10:08:42.446Z,46.88
2022-08-09T10:12:00.614Z,45.64
2022-08-09T10:14:30.989Z,45.72
2022-08-09T10:17:24.352Z,45.57
2022-08-09T10:19:59.882Z,45.98
2022-08-09T10:22:34.322Z,45.82
2022-08-09T10:25:11.903Z,45.97
2022-08-09T10:27:56.060Z,45.27
2022-08-09T10:33:29.731Z,46.17
2022-08-09T10:36:09.708Z,46.68
2022-08-09T10:38:56.568Z,46.33
2022-08-09T10:41:27.958Z,46.84
2022-08-09T10:44:00.044Z,46.06
2022-08-09T10:48:12.042Z,46.69
2022-08-09T10:50:14.819Z,45.33
2022-08-09T10:53:10.605Z,45.73
2022-08-09T10:55:57.812Z,45.72
2022-08-09T10:58:37.453Z,45.53
2022-08-09T11:03:05.682Z,45.38
2022-08-09T11:04:31.541Z,45.00
2022-08-09T11:07:57.587Z,45.30
2022-08-09T11:11:08.544Z,45.23
2022-08-09T11:13:50.995Z,44.54
2022-08-09T11:16:38.483Z,44.81
2022-08-09T11:19:10.675Z,44.58
2022-08-09T11:22:05.285Z,44.06
2022-08-09T11:25:09.161Z,44.41
2022-08-09T11:28:02.508Z,43.85
2022-08-09T11:30:37.789Z,44.40
2022-08-09T11:33:13.065Z,44.07
2022-08-09T11:35:49.104Z,43.82
2022-08-09T11:38:22.060Z,43.49
2022-08-09T11:40:52.784Z,42.52
2022-08-09T11:43:43.891Z,42.93
2022-08-09T11:46:12.432Z,43.39
2022-08-09T11:48:52.140Z,43.15
2022-08-09T11:52:48.660Z,42.00
2022-08-09T11:54:28.007Z,42.28
2022-08-09T11:57:47.898Z,40.65
2022-08-09T12:00:30.817Z,39.11
2022-08-09T12:03:31.840Z,38.10
2022-08-09T12:05:51.872Z,37.18
2022-08-09T12:08:22.396Z,36.56
2022-08-09T12:10:53.910Z,35.82
2022-08-09T12:14:08.218Z,36.18
2022-08-09T12:16:37.899Z,35.84
2022-08-09T12:19:09.321Z,34.89
2022-08-09T12:21:48.433Z,34.98
2022-08-09T12:24:25.025Z,34.64
2022-08-09T12:29:15.614Z,35.78
2022-08-09T12:30:02.045Z,34.35
2022-08-09T12:32:48.599Z,33.78
2022-08-09T12:35:19.120Z,33.54
2022-08-09T12:37:52.102Z,33.46
2022-08-09T12:40:24.442Z,33.28
2022-08-09T12:42:53.803Z,32.85
2022-08-09T12:45:35.077Z,31.65
2022-08-09T12:48:11.036Z,31.25
2022-08-09T12:50:57.426Z,31.30
2022-08-09T12:53:35.101Z,30.26
2022-08-09T12:56:39.352Z,30.42
2022-08-09T12:59:10.184Z,29.98
2022-08-09T13:01:46.824Z,28.96
2022-08-09T13:04:21.734Z,28.73
2022-08-09T13:07:14.025Z,29.56
2022-08-09T13:09:52.782Z,29.50
2022-08-09T13:12:29.272Z,28.28
2022-08-09T13:15:07.047Z,28.39
2022-08-09T13:17:58.878Z,28.27
2022-08-09T13:20:37.769Z,28.09
2022-08-09T13:24:17.014Z,28.50
2022-08-09T13:26:38.574Z,28.08
2022-08-09T13:29:10.383Z,28.25
2022-08-09T13:32:17.416Z,27.80
2022-08-09T13:34:50.700Z,27.88
2022-08-09T13:37:51.139Z,27.17
2022-08-09T13:41:46.297Z,26.24
2022-08-09T13:43:03.547Z,26.44
2022-08-09T13:46:43.749Z,26.03
2022-08-09T13:48:21.947Z,25.90
2022-08-09T13:50:55.451Z,25.50
2022-08-09T13:53:41.198Z,26.36
2022-08-09T13:56:12.451Z,25.83
2022-08-09T13:58:40.653Z,24.75
2022-08-09T14:01:13.463Z,24.58
2022-08-09T14:04:05.033Z,25.92
2022-08-09T14:06:43.644Z,25.39
2022-08-09T14:09:16.026Z,25.35
2022-08-09T14:11:47.064Z,25.10
2022-08-09T14:14:25.679Z,24.58
2022-08-09T14:16:55.654Z,24.29
2022-08-09T14:19:24.533Z,25.07
2022-08-09T14:21:53.974Z,22.92
2022-08-09T14:24:32.583Z,23.11
2022-08-09T14:27:02.422Z,23.07
2022-08-09T14:30:35.158Z,23.65
2022-08-09T14:32:19.873Z,23.03
2022-08-09T14:34:57.429Z,22.20
2022-08-09T14:37:28.419Z,22.56
2022-08-09T14:40:12.833Z,22.98
2022-08-09T14:42:41.507Z,22.11
2022-08-09T14:46:55.435Z,22.27
2022-08-09T14:48:02.361Z,21.96
2022-08-09T14:50:34.525Z,22.36
2022-08-09T14:53:11.033Z,22.31
2022-08-09T14:55:42.412Z,22.24
2022-08-09T14:58:19.115Z,21.79
2022-08-09T15:00:47.980Z,21.90
2022-08-09T15:03:20.555Z,21.47
2022-08-09T15:05:52.552Z,21.58
2022-08-09T15:08:26.518Z,21.32
2022-08-09T15:11:05.047Z,21.22
2022-08-09T15:13:55.809Z,21.53
2022-08-09T15:16:24.079Z,21.13
2022-08-09T15:18:59.798Z,21.13
2022-08-09T15:21:55.996Z,21.16
2022-08-09T15:24:27.108Z,20.67
2022-08-09T15:26:57.726Z,20.40
2022-08-09T15:30:58.380Z,20.34
2022-08-09T15:32:28.652Z,20.60
2022-08-09T15:35:00.879Z,20.67
2022-08-09T15:38:10.588Z,20.65
2022-08-09T15:40:31.994Z,20.67
2022-08-09T15:43:04.041Z,20.49
2022-08-09T15:45:51.417Z,20.00
2022-08-09T15:48:29.223Z,20.21
2022-08-09T15:50:59.391Z,20.15
2022-08-09T15:54:05.762Z,20.27
2022-08-09T15:56:29.382Z,20.00
2022-08-09T15:59:01.187Z,19.76
2022-08-09T16:01:31.409Z,19.91
2022-08-09T16:04:03.562Z,19.98
2022-08-09T16:06:35.435Z,19.91
2022-08-09T16:09:06.853Z,19.23
2022-08-09T16:11:35.316Z,19.19
2022-08-09T16:14:07.957Z,19.07
2022-08-09T16:16:41.900Z,19.29
2022-08-09T16:19:16.339Z,18.91
2022-08-09T16:21:51.929Z,18.89
2022-08-09T16:24:33.108Z,19.30
2022-08-09T16:27:05.254Z,18.90
2022-08-09T16:29:37.133Z,19.06
2022-08-09T16:32:19.218Z,19.02
2022-08-09T16:34:58.137Z,18.75
2022-08-09T16:37:54.060Z,18.61
2022-08-09T16:40:20.373Z,18.30
2022-08-09T16:42:49.250Z,18.60
2022-08-09T16:45:20.299Z,19.22
2022-08-09T16:48:42.405Z,19.33
2022-08-09T16:50:59.364Z,18.90
2022-08-09T16:53:33.816Z,18.88
2022-08-09T16:56:09.355Z,19.06
2022-08-09T16:58:39.700Z,19.26
2022-08-09T17:01:12.242Z,19.02
2022-08-09T17:03:40.474Z,19.18
2022-08-09T17:06:29.098Z,19.24
2022-08-09T17:09:16.265Z,19.55
2022-08-09T17:11:48.259Z,19.66
2022-08-09T17:14:27.448Z,19.62
2022-08-09T17:17:01.638Z,19.08
2022-08-09T17:20:05.090Z,19.16
2022-08-09T17:22:23.892Z,19.82
2022-08-09T17:25:02.561Z,19.01
2022-08-09T17:27:32.294Z,19.82
2022-08-09T17:30:04.880Z,20.18
2022-08-09T17:32:38.276Z,19.64
2022-08-09T17:35:11.242Z,19.34
2022-08-09T17:38:02.220Z,20.21
2022-08-09T17:40:32.126Z,19.92
2022-08-09T17:43:10.754Z,20.71
2022-08-09T17:46:04.115Z,20.63
2022-08-09T17:48:38.993Z,20.88
2022-08-09T17:51:18.658Z,21.59
2022-08-09T17:53:55.562Z,21.70
2022-08-09T17:56:28.762Z,21.70
2022-08-09T17:59:00.917Z,22.03
2022-08-09T18:01:57.749Z,21.98
2022-08-09T18:04:22.035Z,22.22
2022-08-09T18:06:54.940Z,22.25
2022-08-09T18:09:41.774Z,21.67
2022-08-09T18:12:17.410Z,22.22
2022-08-09T18:14:54.647Z,22.07
2022-08-09T18:18:02.124Z,22.41
2022-08-09T18:20:55.134Z,22.73
2022-08-09T18:23:07.702Z,23.06
2022-08-09T18:25:57.729Z,22.99
2022-08-09T18:30:39.812Z,23.60
2022-08-09T18:31:24.771Z,23.72
2022-08-09T18:34:00.358Z,24.50
2022-08-09T18:36:32.475Z,25.55
2022-08-09T18:39:03.445Z,26.78
2022-08-09T18:41:38.224Z,28.33
2022-08-09T18:44:13.020Z,29.74
2022-08-09T18:46:51.019Z,31.19
2022-08-09T18:49:41.422Z,32.99
2022-08-09T18:52:14.245Z,34.29
2022-08-09T18:54:49.761Z,35.33
2022-08-09T18:57:38.647Z,35.94
2022-08-09T19:00:19.115Z,36.96
2022-08-09T19:02:48.452Z,37.91
2022-08-09T19:05:41.329Z,38.57
2022-08-09T19:08:14.229Z,39.10
2022-08-09T19:10:47.906Z,40.32
2022-08-09T19:13:19.985Z,40.58
2022-08-09T19:15:52.040Z,41.33
2022-08-09T19:18:33.309Z,41.87
2022-08-09T19:21:09.818Z,42.60
2022-08-09T19:24:37.051Z,43.44
2022-08-09T19:26:35.162Z,43.86
2022-08-09T19:29:15.082Z,44.22
2022-08-09T19:31:49.436Z,44.91
2022-08-09T19:34:24.788Z,45.34
2022-08-09T19:36:58.469Z,46.11
2022-08-09T19:40:03.628Z,46.85
2022-08-09T19:42:19.803Z,47.69
2022-08-09T19:44:55.998Z,47.92
2022-08-09T19:47:27.062Z,48.53
2022-08-09T19:50:07.317Z,49.28
2022-08-09T19:52:51.751Z,49.99
2022-08-09T19:55:30.468Z,50.71
2022-08-09T19:58:02.347Z,51.03
2022-08-09T20:00:32.602Z,51.67
2022-08-09T20:04:10.522Z,52.39
2022-08-09T20:05:50.762Z,52.64
2022-08-09T20:08:33.358Z,53.28
2022-08-09T20:11:05.587Z,53.97
2022-08-09T20:13:37.198Z,54.30
2022-08-09T20:16:36.898Z,54.85
2022-08-09T20:19:42.598Z,55.27
2022-08-09T20:21:57.103Z,55.65
2022-08-09T20:24:31.893Z,56.36
2022-08-09T20:27:05.683Z,57.19
2022-08-09T20:29:38.607Z,57.72
2022-08-09T20:32:30.891Z,57.79
2022-08-09T20:34:57.266Z,58.28
2022-08-09T20:37:37.727Z,58.57
2022-08-09T20:40:26.887Z,59.22
2022-08-09T20:43:11.965Z,59.62
2022-08-09T20:46:00.704Z,59.71
2022-08-09T20:48:37.520Z,60.40
2022-08-09T20:51:19.348Z,61.06
2022-08-09T20:53:48.960Z,61.46
2022-08-09T20:56:21.797Z,62.21
2022-08-09T20:58:58.051Z,62.27
2022-08-09T21:01:34.444Z,62.26
2022-08-09T21:05:57.760Z,63.26
2022-08-09T21:07:11.273Z,63.71
2022-08-09T21:09:56.337Z,64.15
2022-08-09T21:12:32.251Z,64.51
2022-08-09T21:15:23.689Z,64.78
2022-08-09T21:18:23.642Z,65.20
2022-08-09T21:20:55.955Z,65.50
2022-08-09T21:23:36.067Z,65.83
2022-08-09T21:26:15.679Z,65.90
2022-08-09T21:28:55.700Z,66.04
2022-08-09T21:31:48.454Z,66.58
2022-08-09T21:34:21.019Z,66.83
2022-08-09T21:36:57.406Z,66.90
2022-08-09T21:39:41.514Z,67.04
2022-08-09T21:42:10.966Z,67.51
2022-08-09T21:44:39.701Z,67.57
2022-08-09T21:47:18.320Z,68.21
2022-08-09T21:49:48.046Z,68.34
2022-08-09T21:52:20.631Z,68.65
2022-08-09T21:54:59.613Z,68.82
2022-08-09T21:57:39.169Z,69.23
2022-08-09T22:00:31.940Z,69.56
2022-08-09T22:03:06.253Z,70.04
2022-08-09T22:05:42.329Z,70.44
2022-08-09T22:08:14.797Z,70.64
2022-08-09T22:11:50.402Z,70.91
2022-08-09T22:13:37.230Z,70.97
2022-08-09T22:16:08.347Z,71.12
2022-08-09T22:18:53.412Z,71.55
2022-08-09T22:21:25.110Z,71.71
2022-08-09T22:24:17.041Z,71.98
2022-08-09T22:26:51.238Z,72.17
2022-08-09T22:29:24.018Z,72.15
2022-08-09T22:31:57.986Z,72.28
2022-08-09T22:34:28.435Z,72.47
2022-08-09T22:36:57.263Z,72.86
2022-08-09T22:39:56.166Z,72.63
2022-08-09T22:42:21.928Z,72.77
2022-08-09T22:45:02.465Z,72.89
2022-08-09T22:48:10.966Z,72.99
2022-08-09T22:50:31.844Z,73.26
2022-08-09T22:53:03.983Z,73.25
2022-08-09T22:56:05.983Z,72.83
2022-08-09T22:58:33.078Z,72.86
2022-08-09T23:01:03.455Z,73.15
2022-08-09T23:04:03.782Z,73.53
2022-08-09T23:06:29.969Z,73.80
2022-08-09T23:09:05.771Z,73.97
2022-08-09T23:11:34.074Z,74.35
2022-08-09T23:14:03.403Z,74.46
2022-08-09T23:16:32.563Z,74.50
2022-08-09T23:19:01.116Z,74.77
2022-08-09T23:21:34.336Z,74.40
2022-08-09T23:24:06.039Z,75.18
2022-08-09T23:26:35.414Z,75.17
2022-08-09T23:29:03.597Z,75.17
2022-08-09T23:31:31.813Z,75.78
2022-08-09T23:34:00.125Z,75.75
2022-08-09T23:36:29.984Z,75.52
2022-08-09T23:38:58.167Z,75.63
2022-08-09T23:41:28.614Z,75.71
2022-08-09T23:43:58.394Z,75.83
2022-08-09T23:46:26.723Z,76.14
2022-08-09T23:48:54.857Z,76.03
2022-08-09T23:51:23.352Z,76.08
2022-08-09T23:54:02.774Z,76.25
2022-08-09T23:56:52.370Z,76.20
2022-08-09T23:59:21.312Z,76.68
